Time;durP1;ratioP1;P1;durP2;ratioP2;P2;SDS_P1;SDS_P2;PMS_P1;PMS_P2;Temp;Humidity;BMP_temperature;BMP_pressure;BME280_temperature;BME280_humidity;BME280_pressure;Samples;Min_cycle;Max_cycle;Signal;HPM_P1;HPM_P2
2022/08/03 00:01:01;;;;;;;5.10;4.60;;;;;;;;;;5010852;28;20546;-73
2022/08/03 00:03:28;;;;;;;4.97;4.67;;;;;;;;;;5010989;28;20501;-74
2022/08/03 00:05:55;;;;;;;6.13;5.70;;;;;;;;;;5011337;28;20451;-74
2022/08/03 00:08:22;;;;;;;5.20;4.80;;;;;;;;;;5010876;28;20709;-73
2022/08/03 00:10:49;;;;;;;5.80;5.03;;;;;;;;;;4997095;28;20448;-73
2022/08/03 00:13:18;;;;;;;5.57;5.07;;;;;;;;;;4990748;28;20484;-73
2022/08/03 00:15:46;;;;;;;5.43;5.03;;;;;;;;;;4990691;28;20463;-73
2022/08/03 00:18:13;;;;;;;4.67;4.37;;;;;;;;;;4991114;28;20452;-74
2022/08/03 00:20:40;;;;;;;5.33;4.93;;;;;;;;;;4991344;28;20448;-75
2022/08/03 00:23:07;;;;;;;5.20;4.70;;;;;;;;;;4991478;28;20449;-73
2022/08/03 00:25:35;;;;;;;5.17;4.50;;;;;;;;;;4991429;28;20468;-74
2022/08/03 00:28:02;;;;;;;5.03;4.63;;;;;;;;;;4997171;28;21019;-74
2022/08/03 00:30:29;;;;;;;6.00;4.43;;;;;;;;;;4999631;28;21036;-73
2022/08/03 00:32:58;;;;;;;4.70;4.40;;;;;;;;;;4999103;28;20538;-73
2022/08/03 00:35:25;;;;;;;5.40;4.83;;;;;;;;;;4991547;28;20503;-75
2022/08/03 00:37:52;;;;;;;6.33;4.33;;;;;;;;;;4991727;28;20440;-75
2022/08/03 00:40:20;;;;;;;4.93;4.53;;;;;;;;;;4991062;28;21010;-74
2022/08/03 00:42:49;;;;;;;4.90;4.53;;;;;;;;;;4990443;28;20944;-74
2022/08/03 00:45:16;;;;;;;5.07;4.67;;;;;;;;;;4990937;28;20464;-73
2022/08/03 00:47:43;;;;;;;7.80;4.50;;;;;;;;;;4991099;28;20448;-75
2022/08/03 00:50:12;;;;;;;5.37;4.70;;;;;;;;;;4990909;28;20443;-75
2022/08/03 00:52:39;;;;;;;4.70;4.30;;;;;;;;;;4990665;28;20524;-74
2022/08/03 00:55:06;;;;;;;4.67;4.27;;;;;;;;;;4990748;28;20527;-74
2022/08/03 00:57:33;;;;;;;5.13;4.23;;;;;;;;;;4990371;28;20506;-75
2022/08/03 01:00:00;;;;;;;4.77;4.37;;;;;;;;;;4990845;28;20960;-77
2022/08/03 01:02:28;;;;;;;4.90;4.50;;;;;;;;;;4990727;28;20479;-77
2022/08/03 01:04:56;;;;;;;4.50;4.20;;;;;;;;;;4990847;28;20595;-74
2022/08/03 01:07:28;;;;;;;4.47;4.17;;;;;;;;;;4991496;28;20779;-77
2022/08/03 01:09:59;;;;;;;4.60;4.17;;;;;;;;;;4997124;28;20440;-75
2022/08/03 01:12:30;;;;;;;4.00;3.80;;;;;;;;;;5010280;28;20486;-75
2022/08/03 01:15:00;;;;;;;5.20;4.80;;;;;;;;;;5010057;28;20479;-75
2022/08/03 01:17:32;;;;;;;6.03;4.73;;;;;;;;;;5010399;28;20443;-75
2022/08/03 01:20:01;;;;;;;6.40;4.90;;;;;;;;;;5010262;28;20505;-75
2022/08/03 01:22:40;;;;;;;4.43;4.13;;;;;;;;;;5009764;28;20447;-75
2022/08/03 01:25:11;;;;;;;4.63;4.33;;;;;;;;;;5010098;28;20519;-76
2022/08/03 01:27:45;;;;;;;4.53;4.23;;;;;;;;;;5010097;28;20443;-75
2022/08/03 01:30:13;;;;;;;4.47;4.17;;;;;;;;;;5010451;28;20476;-74
2022/08/03 01:32:43;;;;;;;4.60;4.30;;;;;;;;;;5009672;28;20491;-73
2022/08/03 01:35:11;;;;;;;5.20;4.80;;;;;;;;;;5009800;28;20471;-74
2022/08/03 01:37:41;;;;;;;4.27;3.97;;;;;;;;;;5009806;28;20936;-75
2022/08/03 01:40:09;;;;;;;4.90;4.50;;;;;;;;;;5009961;28;20446;-74
2022/08/03 01:42:36;;;;;;;4.77;4.47;;;;;;;;;;5009676;28;20470;-75
2022/08/03 01:45:04;;;;;;;6.57;4.93;;;;;;;;;;5009687;28;20464;-74
2022/08/03 01:47:33;;;;;;;5.17;4.70;;;;;;;;;;5009540;28;20855;-74
2022/08/03 01:50:01;;;;;;;5.73;4.60;;;;;;;;;;5009915;28;20451;-75
2022/08/03 01:52:29;;;;;;;5.10;4.80;;;;;;;;;;5009791;28;20770;-74
2022/08/03 01:54:57;;;;;;;5.23;4.80;;;;;;;;;;5009586;28;20471;-76
2022/08/03 01:57:24;;;;;;;5.77;5.27;;;;;;;;;;5009861;28;20876;-75
2022/08/03 01:59:53;;;;;;;5.87;5.40;;;;;;;;;;5009326;28;20443;-74
2022/08/03 02:02:20;;;;;;;5.40;5.00;;;;;;;;;;5010011;28;20526;-75
2022/08/03 02:04:49;;;;;;;6.73;5.47;;;;;;;;;;5009367;28;20459;-73
2022/08/03 02:07:16;;;;;;;5.97;5.57;;;;;;;;;;5009913;28;20649;-73
2022/08/03 02:09:45;;;;;;;5.40;5.10;;;;;;;;;;5004638;28;20448;-74
2022/08/03 02:12:14;;;;;;;5.53;5.10;;;;;;;;;;4992204;28;20456;-75
2022/08/03 02:14:42;;;;;;;6.30;5.80;;;;;;;;;;4993052;28;20512;-75
2022/08/03 02:17:10;;;;;;;6.50;5.90;;;;;;;;;;4993671;28;20874;-75
2022/08/03 02:19:37;;;;;;;6.13;5.63;;;;;;;;;;4993334;28;20879;-75
2022/08/03 02:22:09;;;;;;;6.37;5.87;;;;;;;;;;4995117;28;20519;-74
2022/08/03 02:24:36;;;;;;;6.57;5.97;;;;;;;;;;4996198;28;20468;-74
2022/08/03 02:27:04;;;;;;;6.40;5.83;;;;;;;;;;4994374;28;20519;-74
2022/08/03 02:29:33;;;;;;;6.27;5.67;;;;;;;;;;4993538;28;20543;-74
2022/08/03 02:32:03;;;;;;;6.27;5.80;;;;;;;;;;4993143;28;20492;-74
2022/08/03 02:34:31;;;;;;;6.40;5.90;;;;;;;;;;4993385;28;20515;-73
2022/08/03 02:36:59;;;;;;;5.90;5.50;;;;;;;;;;4993512;28;20928;-74
2022/08/03 02:39:29;;;;;;;7.23;6.63;;;;;;;;;;4993171;28;20452;-73
2022/08/03 02:42:01;;;;;;;7.67;6.53;;;;;;;;;;4995681;28;20907;-74
2022/08/03 02:44:28;;;;;;;7.77;7.00;;;;;;;;;;5012806;28;20471;-75
2022/08/03 02:46:59;;;;;;;7.97;6.80;;;;;;;;;;5017680;28;20443;-75
2022/08/03 02:49:27;;;;;;;7.30;6.77;;;;;;;;;;5017871;28;20451;-72
2022/08/03 02:51:55;;;;;;;7.17;6.60;;;;;;;;;;5013068;28;20446;-75
2022/08/03 02:54:23;;;;;;;7.33;6.73;;;;;;;;;;5012195;28;20487;-73
2022/08/03 02:56:52;;;;;;;7.33;6.40;;;;;;;;;;5012316;28;20439;-75
2022/08/03 02:59:20;;;;;;;6.90;5.87;;;;;;;;;;5012136;28;20857;-74
2022/08/03 03:01:48;;;;;;;7.17;6.50;;;;;;;;;;5012316;28;20822;-76
2022/08/03 03:04:15;;;;;;;7.37;6.70;;;;;;;;;;5011986;28;20455;-74
2022/08/03 03:06:43;;;;;;;7.40;6.80;;;;;;;;;;5012519;28;20452;-75
2022/08/03 03:09:10;;;;;;;6.83;6.33;;;;;;;;;;5011937;28;20444;-75
2022/08/03 03:11:39;;;;;;;6.70;6.07;;;;;;;;;;4992957;28;20456;-76
2022/08/03 03:14:07;;;;;;;7.23;6.53;;;;;;;;;;4992579;28;20483;-74
2022/08/03 03:16:35;;;;;;;6.90;6.40;;;;;;;;;;4992871;28;20441;-74
2022/08/03 03:19:03;;;;;;;7.23;6.60;;;;;;;;;;4993103;28;21131;-75
2022/08/03 03:21:31;;;;;;;7.83;6.93;;;;;;;;;;4993384;28;20472;-74
2022/08/03 03:23:58;;;;;;;7.30;6.70;;;;;;;;;;4991972;28;20523;-74
2022/08/03 03:26:25;;;;;;;6.83;6.33;;;;;;;;;;4993112;28;20522;-74
2022/08/03 03:28:52;;;;;;;7.67;7.07;;;;;;;;;;4992766;28;20568;-74
2022/08/03 03:31:21;;;;;;;6.30;5.90;;;;;;;;;;4993447;28;21015;-74
2022/08/03 03:33:48;;;;;;;7.20;6.50;;;;;;;;;;4993021;28;20558;-74
2022/08/03 03:36:15;;;;;;;6.33;5.83;;;;;;;;;;4993393;28;20440;-73
2022/08/03 03:38:42;;;;;;;6.80;6.30;;;;;;;;;;4998261;28;20469;-75
2022/08/03 03:41:10;;;;;;;7.00;6.30;;;;;;;;;;5001533;28;20851;-75
2022/08/03 03:43:37;;;;;;;7.07;6.57;;;;;;;;;;4999394;28;20498;-72
2022/08/03 03:46:04;;;;;;;6.90;6.30;;;;;;;;;;4992573;28;20952;-75
2022/08/03 03:48:32;;;;;;;9.43;6.40;;;;;;;;;;4992019;28;20452;-74
2022/08/03 03:50:59;;;;;;;6.03;5.63;;;;;;;;;;4992014;28;20863;-75
2022/08/03 03:53:26;;;;;;;6.90;6.40;;;;;;;;;;4991230;28;21015;-74
2022/08/03 03:55:53;;;;;;;7.80;6.60;;;;;;;;;;4991906;28;20498;-74
2022/08/03 03:58:20;;;;;;;6.60;6.10;;;;;;;;;;4991683;28;20444;-74
2022/08/03 04:00:48;;;;;;;6.83;6.33;;;;;;;;;;4991582;28;20456;-74
2022/08/03 04:03:15;;;;;;;5.80;5.30;;;;;;;;;;4991580;28;20531;-76
2022/08/03 04:11:15;;;;;;;6.90;6.33;;;;;;;;;;5011202;28;20447;-75
2022/08/03 04:13:44;;;;;;;6.03;5.63;;;;;;;;;;5010839;28;20487;-74
2022/08/03 04:16:12;;;;;;;6.53;5.97;;;;;;;;;;5011107;28;21130;-74
2022/08/03 04:18:40;;;;;;;5.80;5.40;;;;;;;;;;5011169;28;20530;-75
2022/08/03 04:21:10;;;;;;;6.60;6.00;;;;;;;;;;5010785;28;20451;-75
2022/08/03 04:23:39;;;;;;;6.93;6.00;;;;;;;;;;5010144;28;20970;-75
2022/08/03 04:26:09;;;;;;;6.13;5.53;;;;;;;;;;5011173;28;20513;-76
2022/08/03 04:28:36;;;;;;;8.33;5.70;;;;;;;;;;5013147;28;20439;-73
2022/08/03 04:31:04;;;;;;;6.67;6.13;;;;;;;;;;5024568;28;20839;-74
2022/08/03 04:33:31;;;;;;;6.83;6.13;;;;;;;;;;5020584;28;20491;-74
2022/08/03 04:35:59;;;;;;;6.60;6.10;;;;;;;;;;5020942;28;20509;-75
2022/08/03 04:38:30;;;;;;;8.10;7.20;;;;;;;;;;5011535;28;21062;-74
2022/08/03 04:40:57;;;;;;;6.97;6.43;;;;;;;;;;5011527;28;20462;-76
2022/08/03 04:43:25;;;;;;;7.00;6.50;;;;;;;;;;5011013;28;20856;-75
2022/08/03 04:45:53;;;;;;;6.27;5.83;;;;;;;;;;5011387;28;20517;-74
2022/08/03 04:48:20;;;;;;;6.30;5.70;;;;;;;;;;5011126;28;20447;-73
2022/08/03 04:50:48;;;;;;;6.73;6.13;;;;;;;;;;5006453;28;20448;-75
2022/08/03 04:53:16;;;;;;;6.73;6.13;;;;;;;;;;5010321;28;20443;-75
2022/08/03 04:55:45;;;;;;;6.77;6.07;;;;;;;;;;5010812;28;20529;-74
2022/08/03 04:58:12;;;;;;;15.20;13.80;;;;;;;;;;5010641;28;20990;-75
2022/08/03 05:00:39;;;;;;;7.60;7.00;;;;;;;;;;5010568;28;20542;-76
2022/08/03 05:03:06;;;;;;;6.30;5.73;;;;;;;;;;5010244;28;20940;-74
2022/08/03 05:05:33;;;;;;;7.10;6.50;;;;;;;;;;5010613;28;21046;-76
2022/08/03 05:08:00;;;;;;;7.03;6.53;;;;;;;;;;5010582;28;20455;-74
2022/08/03 05:10:27;;;;;;;7.10;6.47;;;;;;;;;;5010421;28;20443;-74
2022/08/03 05:12:56;;;;;;;7.00;6.50;;;;;;;;;;5010106;28;20454;-74
2022/08/03 05:15:23;;;;;;;7.10;6.40;;;;;;;;;;5010154;28;20537;-74
2022/08/03 05:17:50;;;;;;;7.30;6.50;;;;;;;;;;5009987;28;20454;-75
2022/08/03 05:20:17;;;;;;;11.50;10.00;;;;;;;;;;5010310;28;20505;-74
2022/08/03 05:22:44;;;;;;;9.03;8.17;;;;;;;;;;5010063;28;20863;-75
2022/08/03 05:25:11;;;;;;;7.60;6.67;;;;;;;;;;5008193;28;20521;-74
2022/08/03 05:27:38;;;;;;;6.77;6.20;;;;;;;;;;5000341;28;20873;-74
2022/08/03 05:30:07;;;;;;;6.87;6.27;;;;;;;;;;5009942;28;20448;-75
2022/08/03 05:32:34;;;;;;;8.20;6.87;;;;;;;;;;5015908;28;20475;-75
2022/08/03 05:35:01;;;;;;;8.67;7.77;;;;;;;;;;5017776;28;20510;-73
2022/08/03 05:37:28;;;;;;;7.33;6.73;;;;;;;;;;5010236;28;20439;-74
2022/08/03 05:39:55;;;;;;;7.10;6.50;;;;;;;;;;5010272;28;20455;-77
2022/08/03 05:42:22;;;;;;;6.43;5.93;;;;;;;;;;5009781;28;20826;-73
2022/08/03 05:44:49;;;;;;;7.87;7.27;;;;;;;;;;5009109;28;20476;-74
2022/08/03 05:47:17;;;;;;;8.17;7.47;;;;;;;;;;5012339;28;20456;-74
2022/08/03 05:49:44;;;;;;;7.73;7.03;;;;;;;;;;5013681;28;20439;-74
2022/08/03 05:52:11;;;;;;;6.80;6.17;;;;;;;;;;5009154;28;20946;-73
2022/08/03 05:54:38;;;;;;;6.50;6.10;;;;;;;;;;5016599;28;20478;-73
2022/08/03 05:57:05;;;;;;;7.00;6.50;;;;;;;;;;5011742;28;20947;-74
2022/08/03 05:59:32;;;;;;;6.60;6.10;;;;;;;;;;5014919;28;20494;-75
2022/08/03 06:01:59;;;;;;;6.97;6.47;;;;;;;;;;5013391;28;20843;-76
2022/08/03 06:04:28;;;;;;;7.47;6.80;;;;;;;;;;5013337;28;20533;-74
2022/08/03 06:06:55;;;;;;;7.20;6.60;;;;;;;;;;5013198;28;20489;-74
2022/08/03 06:09:22;;;;;;;7.20;6.60;;;;;;;;;;5013426;28;21001;-75
2022/08/03 06:11:49;;;;;;;6.60;6.00;;;;;;;;;;5013326;28;20485;-74
2022/08/03 06:14:16;;;;;;;6.63;6.03;;;;;;;;;;5012605;28;20491;-74
2022/08/03 06:16:43;;;;;;;6.77;6.17;;;;;;;;;;5012179;28;20451;-74
2022/08/03 06:19:10;;;;;;;6.50;5.90;;;;;;;;;;5010169;28;20451;-75
2022/08/03 06:21:38;;;;;;;6.90;6.23;;;;;;;;;;5012784;28;20443;-73
2022/08/03 06:24:05;;;;;;;6.63;6.13;;;;;;;;;;5012711;28;20529;-74
2022/08/03 06:26:33;;;;;;;15.00;6.87;;;;;;;;;;5012473;28;20444;-74
2022/08/03 06:29:00;;;;;;;7.30;6.60;;;;;;;;;;5012379;28;20950;-75
2022/08/03 06:31:28;;;;;;;8.40;6.80;;;;;;;;;;5012887;28;20505;-74
2022/08/03 06:33:55;;;;;;;7.73;6.73;;;;;;;;;;5012197;28;20566;-74
2022/08/03 06:36:22;;;;;;;7.00;6.30;;;;;;;;;;5012391;28;20846;-75
2022/08/03 06:38:51;;;;;;;6.13;5.73;;;;;;;;;;5012634;28;20501;-74
2022/08/03 06:41:18;;;;;;;7.60;6.90;;;;;;;;;;5012717;28;21102;-74
2022/08/03 06:43:45;;;;;;;6.47;5.97;;;;;;;;;;5012486;28;20463;-74
2022/08/03 06:46:12;;;;;;;8.00;6.27;;;;;;;;;;5014197;28;20440;-74
2022/08/03 06:48:39;;;;;;;9.60;8.90;;;;;;;;;;5012468;28;20451;-74
2022/08/03 06:51:06;;;;;;;8.33;6.63;;;;;;;;;;5012213;28;20874;-76
2022/08/03 06:53:33;;;;;;;6.93;6.07;;;;;;;;;;5011845;28;20435;-76
2022/08/03 06:56:01;;;;;;;5.67;5.27;;;;;;;;;;5012244;28;20487;-73
2022/08/03 06:58:28;;;;;;;7.63;6.10;;;;;;;;;;5012052;28;20443;-75
2022/08/03 07:00:55;;;;;;;6.77;6.30;;;;;;;;;;5012342;28;20448;-74
2022/08/03 07:03:22;;;;;;;9.73;5.90;;;;;;;;;;5011980;28;20443;-74
2022/08/03 07:05:50;;;;;;;6.83;6.13;;;;;;;;;;5012042;28;20970;-75
2022/08/03 07:08:17;;;;;;;6.77;6.20;;;;;;;;;;5012150;28;20526;-73
2022/08/03 07:10:44;;;;;;;6.97;6.37;;;;;;;;;;5012189;28;20443;-75
2022/08/03 07:13:12;;;;;;;8.07;5.73;;;;;;;;;;5011727;28;20455;-74
2022/08/03 07:15:40;;;;;;;5.90;5.40;;;;;;;;;;5011661;28;20561;-75
2022/08/03 07:18:07;;;;;;;5.80;5.40;;;;;;;;;;5011742;28;20948;-73
2022/08/03 07:20:34;;;;;;;5.80;5.40;;;;;;;;;;5011536;28;20446;-75
2022/08/03 07:23:01;;;;;;;6.13;5.73;;;;;;;;;;5011764;28;20448;-74
2022/08/03 07:25:28;;;;;;;6.30;5.80;;;;;;;;;;5011494;28;20896;-75
2022/08/03 07:27:55;;;;;;;6.10;5.70;;;;;;;;;;5011323;28;20949;-73
2022/08/03 07:30:23;;;;;;;7.23;5.20;;;;;;;;;;5009279;28;20509;-76
2022/08/03 07:32:50;;;;;;;6.63;5.50;;;;;;;;;;5010971;28;20474;-74
2022/08/03 07:35:18;;;;;;;10.30;7.20;;;;;;;;;;5011104;28;20483;-75
2022/08/03 07:37:45;;;;;;;9.90;9.00;;;;;;;;;;5003475;28;20444;-76
2022/08/03 07:40:12;;;;;;;5.57;5.03;;;;;;;;;;5011551;28;20443;-75
2022/08/03 07:42:39;;;;;;;5.90;5.40;;;;;;;;;;5011078;28;20443;-75
2022/08/03 07:45:07;;;;;;;5.57;5.13;;;;;;;;;;5011465;28;20471;-74
2022/08/03 07:47:35;;;;;;;6.53;4.77;;;;;;;;;;5011908;28;20493;-74
2022/08/03 07:50:02;;;;;;;6.00;5.43;;;;;;;;;;5028568;28;20439;-74
2022/08/03 07:52:48;;;;;;;5.90;5.40;;;;;;;;;;5026982;28;20563;-77
2022/08/03 07:55:15;;;;;;;6.23;5.63;;;;;;;;;;5019777;28;20487;-74
2022/08/03 07:57:43;;;;;;;7.80;5.57;;;;;;;;;;5009990;28;20451;-75
2022/08/03 08:00:13;;;;;;;7.60;5.20;;;;;;;;;;5008198;28;20454;-75
2022/08/03 08:02:42;;;;;;;5.80;5.40;;;;;;;;;;5010969;28;20505;-74
2022/08/03 08:05:09;;;;;;;6.40;5.17;;;;;;;;;;5011049;28;20468;-75
2022/08/03 08:07:37;;;;;;;7.83;5.07;;;;;;;;;;5010889;28;20443;-75
2022/08/03 08:10:04;;;;;;;5.70;5.20;;;;;;;;;;5002594;28;20468;-75
2022/08/03 08:12:31;;;;;;;6.20;5.63;;;;;;;;;;4991115;28;20448;-75
2022/08/03 08:14:58;;;;;;;6.10;5.17;;;;;;;;;;4990647;28;20546;-74
2022/08/03 08:17:25;;;;;;;6.03;5.43;;;;;;;;;;4991537;28;20479;-76
2022/08/03 08:19:54;;;;;;;5.40;4.97;;;;;;;;;;4991443;28;20443;-75
2022/08/03 08:22:21;;;;;;;4.77;4.33;;;;;;;;;;4991093;28;20493;-74
2022/08/03 08:24:48;;;;;;;5.60;4.20;;;;;;;;;;4990755;28;20464;-76
2022/08/03 08:27:15;;;;;;;4.00;3.70;;;;;;;;;;4991113;28;20448;-76
2022/08/03 08:29:42;;;;;;;4.57;4.17;;;;;;;;;;4991422;28;20444;-76
2022/08/03 08:32:10;;;;;;;5.63;4.07;;;;;;;;;;4991226;28;20549;-76
2022/08/03 08:34:37;;;;;;;6.20;3.40;;;;;;;;;;4989973;28;20560;-76
2022/08/03 08:37:05;;;;;;;4.50;4.10;;;;;;;;;;4990740;28;20499;-75
2022/08/03 08:39:32;;;;;;;4.47;4.07;;;;;;;;;;4991544;28;20452;-75
2022/08/03 08:41:59;;;;;;;3.83;3.63;;;;;;;;;;4991759;28;20456;-75
2022/08/03 08:44:26;;;;;;;6.50;3.60;;;;;;;;;;4992391;28;20465;-74
2022/08/03 08:46:54;;;;;;;4.20;3.80;;;;;;;;;;5001471;28;20509;-75
2022/08/03 08:49:24;;;;;;;7.30;4.10;;;;;;;;;;5009994;28;20443;-76
2022/08/03 08:51:51;;;;;;;4.07;3.83;;;;;;;;;;5009306;28;20451;-74
2022/08/03 08:54:21;;;;;;;3.00;2.80;;;;;;;;;;5009328;28;20518;-75
2022/08/03 08:56:49;;;;;;;3.97;2.90;;;;;;;;;;5009273;28;20582;-73
2022/08/03 08:59:16;;;;;;;3.20;2.90;;;;;;;;;;5009629;28;20501;-74
2022/08/03 09:01:43;;;;;;;3.67;2.70;;;;;;;;;;5009690;28;20447;-75
2022/08/03 09:04:10;;;;;;;3.93;2.70;;;;;;;;;;5012263;28;20467;-74
2022/08/03 09:06:38;;;;;;;2.60;2.40;;;;;;;;;;5018434;28;20439;-75
2022/08/03 09:09:07;;;;;;;2.47;2.30;;;;;;;;;;5014029;28;20470;-75
2022/08/03 09:11:36;;;;;;;2.33;2.13;;;;;;;;;;4990306;28;20549;-76
2022/08/03 09:14:03;;;;;;;2.50;2.40;;;;;;;;;;4989411;28;21050;-75
2022/08/03 09:16:30;;;;;;;2.40;2.30;;;;;;;;;;4989787;28;20542;-74
2022/08/03 09:19:11;;;;;;;2.10;2.00;;;;;;;;;;4989678;28;20447;-75
2022/08/03 09:21:38;;;;;;;2.00;1.90;;;;;;;;;;4992672;28;20860;-74
2022/08/03 09:24:06;;;;;;;2.47;2.27;;;;;;;;;;4993457;28;20499;-74
2022/08/03 09:26:34;;;;;;;4.70;2.47;;;;;;;;;;4993754;28;20843;-74
2022/08/03 09:29:04;;;;;;;4.13;2.40;;;;;;;;;;4993922;28;20510;-75
2022/08/03 09:31:32;;;;;;;3.07;2.20;;;;;;;;;;4994007;28;20444;-74
2022/08/03 09:33:59;;;;;;;1.90;1.80;;;;;;;;;;4995715;28;20892;-74
2022/08/03 09:36:36;;;;;;;1.83;1.73;;;;;;;;;;4994075;28;20486;-75
2022/08/03 09:39:05;;;;;;;2.47;2.27;;;;;;;;;;4993665;28;20535;-75
2022/08/03 09:41:32;;;;;;;2.83;2.60;;;;;;;;;;4993348;28;20448;-75
2022/08/03 09:43:59;;;;;;;2.20;2.00;;;;;;;;;;4992872;28;20472;-74
2022/08/03 09:46:30;;;;;;;4.43;2.30;;;;;;;;;;4993000;28;20440;-76
2022/08/03 09:49:09;;;;;;;1.90;1.80;;;;;;;;;;4993119;28;20444;-75
2022/08/03 09:51:36;;;;;;;2.23;2.00;;;;;;;;;;4993477;28;20447;-76
2022/08/03 09:54:04;;;;;;;1.80;1.70;;;;;;;;;;4993111;28;20551;-75
2022/08/03 09:56:44;;;;;;;2.23;1.90;;;;;;;;;;4993257;28;20538;-75
2022/08/03 09:59:11;;;;;;;3.00;2.00;;;;;;;;;;4992993;28;20463;-76
2022/08/03 10:01:41;;;;;;;3.43;1.83;;;;;;;;;;4993367;28;20535;-76
2022/08/03 10:04:12;;;;;;;1.73;1.63;;;;;;;;;;4993117;28;20456;-76
2022/08/03 10:06:40;;;;;;;2.23;2.00;;;;;;;;;;4993268;28;20986;-78
2022/08/03 10:09:08;;;;;;;1.70;1.60;;;;;;;;;;4993371;28;20482;-76
2022/08/03 10:11:36;;;;;;;1.87;1.77;;;;;;;;;;4993054;28;20454;-76
2022/08/03 10:14:04;;;;;;;2.43;1.70;;;;;;;;;;4992562;28;20476;-75
2022/08/03 10:16:34;;;;;;;1.60;1.50;;;;;;;;;;4993089;28;20588;-75
2022/08/03 10:19:02;;;;;;;1.80;1.67;;;;;;;;;;4993504;28;20531;-75
2022/08/03 10:21:33;;;;;;;1.93;1.50;;;;;;;;;;4992693;28;20456;-75
2022/08/03 10:24:01;;;;;;;3.87;2.00;;;;;;;;;;4992706;28;20468;-77
2022/08/03 10:26:31;;;;;;;2.57;1.83;;;;;;;;;;4993073;28;20451;-75
2022/08/03 10:29:01;;;;;;;1.60;1.50;;;;;;;;;;4992843;28;20846;-76
2022/08/03 10:31:33;;;;;;;1.70;1.60;;;;;;;;;;4992599;28;20451;-75
2022/08/03 10:34:02;;;;;;;1.87;1.60;;;;;;;;;;4992306;28;20522;-76
2022/08/03 10:36:32;;;;;;;2.43;1.40;;;;;;;;;;4992524;28;20484;-75
2022/08/03 10:38:59;;;;;;;1.73;1.63;;;;;;;;;;4993174;28;20499;-75
2022/08/03 10:41:31;;;;;;;2.10;2.00;;;;;;;;;;4992520;28;21014;-74
2022/08/03 10:43:59;;;;;;;1.70;1.60;;;;;;;;;;4992089;28;20464;-74
2022/08/03 10:46:27;;;;;;;2.03;1.83;;;;;;;;;;4993088;28;20583;-74
2022/08/03 10:48:55;;;;;;;1.60;1.50;;;;;;;;;;4992840;28;20452;-76
2022/08/03 10:51:22;;;;;;;1.80;1.70;;;;;;;;;;4992377;28;20456;-74
2022/08/03 10:53:50;;;;;;;1.70;1.60;;;;;;;;;;4992078;28;20472;-74
2022/08/03 10:59:39;;;;;;;1.90;1.80;;;;;;;;;;4991649;28;20407;-75
2022/08/03 11:02:07;;;;;;;1.73;1.67;;;;;;;;;;4992409;28;20451;-76
2022/08/03 11:04:34;;;;;;;1.53;1.53;;;;;;;;;;4991165;28;21012;-75
2022/08/03 11:07:21;;;;;;;2.03;1.70;;;;;;;;;;4991933;28;20871;-77
2022/08/03 11:09:50;;;;;;;2.00;1.90;;;;;;;;;;5003021;28;20479;-74
2022/08/03 11:12:22;;;;;;;2.13;1.60;;;;;;;;;;5009760;28;20497;-75
2022/08/03 11:14:49;;;;;;;2.03;1.87;;;;;;;;;;5003038;28;20471;-76
2022/08/03 11:17:17;;;;;;;1.80;1.70;;;;;;;;;;5010729;28;21085;-74
2022/08/03 11:19:45;;;;;;;2.07;1.97;;;;;;;;;;5010631;28;20796;-74
2022/08/03 11:22:12;;;;;;;2.40;2.20;;;;;;;;;;5010952;28;20509;-74
2022/08/03 11:24:59;;;;;;;1.60;1.60;;;;;;;;;;5010908;28;20506;-74
2022/08/03 11:27:27;;;;;;;2.07;1.67;;;;;;;;;;5011136;28;20497;-74
2022/08/03 11:29:56;;;;;;;1.70;1.60;;;;;;;;;;5011147;28;20448;-77
2022/08/03 11:32:42;;;;;;;4.17;1.90;;;;;;;;;;5011217;28;20478;-76
2022/08/03 11:35:09;;;;;;;1.80;1.70;;;;;;;;;;5010631;28;20473;-76
2022/08/03 11:37:37;;;;;;;1.83;1.73;;;;;;;;;;5010901;28;20483;-75
2022/08/03 11:40:06;;;;;;;1.60;1.50;;;;;;;;;;5010976;28;20851;-76
2022/08/03 11:42:39;;;;;;;1.70;1.60;;;;;;;;;;5010475;28;20942;-76
2022/08/03 11:45:08;;;;;;;2.33;2.00;;;;;;;;;;5010356;28;20507;-76
2022/08/03 11:47:37;;;;;;;1.87;1.77;;;;;;;;;;5011040;28;20506;-76
2022/08/03 11:50:05;;;;;;;3.57;1.90;;;;;;;;;;5011737;28;20466;-77
2022/08/03 11:52:35;;;;;;;1.80;1.70;;;;;;;;;;5014247;28;20521;-76
2022/08/03 11:55:02;;;;;;;1.30;1.30;;;;;;;;;;5018777;28;20526;-75
2022/08/03 11:57:31;;;;;;;3.03;1.83;;;;;;;;;;5015834;28;20479;-76
2022/08/03 11:59:58;;;;;;;2.27;2.17;;;;;;;;;;5010653;28;20451;-75
2022/08/03 12:02:25;;;;;;;2.20;1.80;;;;;;;;;;5010446;28;21009;-75
2022/08/03 12:05:00;;;;;;;1.87;1.77;;;;;;;;;;5129156;27;20527;-77
2022/08/03 12:07:28;;;;;;;2.10;2.00;;;;;;;;;;5110930;27;20439;-75
2022/08/03 12:10:08;;;;;;;1.73;1.63;;;;;;;;;;5108748;28;20958;-77
2022/08/03 12:12:35;;;;;;;2.03;1.93;;;;;;;;;;5108583;28;20442;-76
2022/08/03 12:15:02;;;;;;;1.57;1.57;;;;;;;;;;5108793;28;20458;-75
2022/08/03 12:17:33;;;;;;;1.70;1.60;;;;;;;;;;5114841;28;20431;-76
2022/08/03 12:20:02;;;;;;;2.10;2.00;;;;;;;;;;5114377;28;20533;-75
2022/08/03 12:22:32;;;;;;;1.83;1.73;;;;;;;;;;5107059;28;20439;-75
2022/08/03 12:25:00;;;;;;;1.93;1.83;;;;;;;;;;5107196;28;20482;-76
2022/08/03 12:27:28;;;;;;;1.83;1.73;;;;;;;;;;5107582;28;20492;-76
2022/08/03 12:29:56;;;;;;;2.03;1.70;;;;;;;;;;5109024;28;20452;-74
2022/08/03 12:32:24;;;;;;;2.37;2.00;;;;;;;;;;5110307;28;20435;-75
2022/08/03 12:34:52;;;;;;;1.77;1.67;;;;;;;;;;5106797;28;20470;-75
2022/08/03 12:37:20;;;;;;;1.50;1.50;;;;;;;;;;5106861;28;20447;-76
2022/08/03 12:39:50;;;;;;;1.60;1.50;;;;;;;;;;5107076;28;20451;-77
2022/08/03 12:42:17;;;;;;;2.60;1.80;;;;;;;;;;5106305;28;21130;-76
2022/08/03 12:44:47;;;;;;;1.70;1.70;;;;;;;;;;5105930;28;20532;-76
2022/08/03 12:47:15;;;;;;;1.83;1.73;;;;;;;;;;5106283;28;20474;-77
2022/08/03 12:49:45;;;;;;;2.00;1.90;;;;;;;;;;5106588;28;20527;-77
2022/08/03 12:52:12;;;;;;;2.00;1.80;;;;;;;;;;5106246;28;21236;-76
2022/08/03 12:54:41;;;;;;;1.90;1.80;;;;;;;;;;5105910;28;20520;-75
2022/08/03 12:57:09;;;;;;;1.83;1.73;;;;;;;;;;5106145;28;20439;-75
2022/08/03 12:59:39;;;;;;;1.70;1.60;;;;;;;;;;5101975;28;20453;-75
2022/08/03 13:02:06;;;;;;;2.40;1.87;;;;;;;;;;5100384;28;20494;-75
2022/08/03 13:04:35;;;;;;;2.10;1.90;;;;;;;;;;5105346;28;20507;-75
2022/08/03 13:07:02;;;;;;;1.50;1.50;;;;;;;;;;5106050;28;20622;-76
2022/08/03 13:09:31;;;;;;;1.90;1.80;;;;;;;;;;5106229;28;20447;-77
2022/08/03 13:12:10;;;;;;;3.43;2.10;;;;;;;;;;5107003;28;20487;-76
2022/08/03 13:14:37;;;;;;;2.27;2.07;;;;;;;;;;5100685;28;20470;-75
2022/08/03 13:17:05;;;;;;;3.00;1.70;;;;;;;;;;5092810;28;20451;-76
2022/08/03 13:19:32;;;;;;;2.13;1.90;;;;;;;;;;5092993;28;20439;-76
2022/08/03 13:22:00;;;;;;;2.03;1.93;;;;;;;;;;5093057;28;20447;-75
2022/08/03 13:24:27;;;;;;;2.00;1.90;;;;;;;;;;5092686;28;20971;-76
2022/08/03 13:26:54;;;;;;;2.30;1.60;;;;;;;;;;5092931;28;20447;-77
2022/08/03 13:29:22;;;;;;;2.30;1.97;;;;;;;;;;5092940;28;20455;-77
2022/08/03 13:31:49;;;;;;;2.60;1.90;;;;;;;;;;5093119;28;20443;-77
2022/08/03 13:34:18;;;;;;;1.90;1.80;;;;;;;;;;5092493;28;20512;-78
2022/08/03 13:36:44;;;;;;;2.30;1.80;;;;;;;;;;5092497;28;20796;-76
2022/08/03 13:39:11;;;;;;;3.43;1.90;;;;;;;;;;5090567;28;20510;-76
2022/08/03 13:41:39;;;;;;;2.20;2.10;;;;;;;;;;5092637;28;20447;-77
2022/08/03 13:44:05;;;;;;;4.40;1.60;;;;;;;;;;5091952;28;20528;-75
2022/08/03 13:46:34;;;;;;;1.83;1.73;;;;;;;;;;5092602;28;20901;-77
2022/08/03 13:49:01;;;;;;;1.93;1.83;;;;;;;;;;5092964;28;20443;-75
2022/08/03 13:51:28;;;;;;;4.90;2.10;;;;;;;;;;5092579;28;20493;-76
2022/08/03 13:53:56;;;;;;;3.90;1.90;;;;;;;;;;5092542;28;20459;-77
2022/08/03 13:56:23;;;;;;;2.50;2.00;;;;;;;;;;5093004;28;20475;-77
2022/08/03 13:58:50;;;;;;;1.77;1.67;;;;;;;;;;5092327;28;20923;-76
2022/08/03 14:01:17;;;;;;;1.80;1.50;;;;;;;;;;5092344;28;20447;-78
2022/08/03 14:03:47;;;;;;;2.30;2.10;;;;;;;;;;5091655;28;20528;-76
2022/08/03 14:06:14;;;;;;;1.90;1.80;;;;;;;;;;5092202;28;20435;-75
2022/08/03 14:08:41;;;;;;;1.30;1.30;;;;;;;;;;5092167;28;20439;-75
2022/08/03 14:11:09;;;;;;;2.30;1.70;;;;;;;;;;5091994;28;20938;-76
2022/08/03 14:13:36;;;;;;;2.00;1.80;;;;;;;;;;5091927;28;20435;-76
2022/08/03 14:16:03;;;;;;;1.83;1.70;;;;;;;;;;5092217;28;20500;-76
2022/08/03 14:18:30;;;;;;;1.90;1.80;;;;;;;;;;5092022;28;20447;-75
2022/08/03 14:20:59;;;;;;;2.07;1.80;;;;;;;;;;5091752;28;20448;-75
2022/08/03 14:23:26;;;;;;;1.60;1.50;;;;;;;;;;5090909;28;20435;-76
2022/08/03 14:25:53;;;;;;;1.90;1.80;;;;;;;;;;5091683;28;21060;-75
2022/08/03 14:28:21;;;;;;;1.97;1.87;;;;;;;;;;5091035;28;20910;-75
2022/08/03 14:30:48;;;;;;;1.60;1.50;;;;;;;;;;5091451;28;20442;-75
2022/08/03 14:33:15;;;;;;;2.13;1.93;;;;;;;;;;5091051;28;20435;-77
2022/08/03 14:35:42;;;;;;;1.70;1.60;;;;;;;;;;5091539;28;20462;-74
2022/08/03 14:38:10;;;;;;;1.67;1.67;;;;;;;;;;5091069;28;20829;-76
2022/08/03 14:40:37;;;;;;;1.80;1.70;;;;;;;;;;5091724;28;20439;-75
2022/08/03 14:43:04;;;;;;;1.80;1.70;;;;;;;;;;5091312;28;20436;-76
2022/08/03 14:45:33;;;;;;;1.80;1.57;;;;;;;;;;5091046;28;20486;-76
2022/08/03 14:48:00;;;;;;;1.83;1.80;;;;;;;;;;5091149;28;20447;-76
2022/08/03 14:50:27;;;;;;;1.73;1.53;;;;;;;;;;5090994;28;20508;-76
2022/08/03 14:52:54;;;;;;;1.97;1.87;;;;;;;;;;5090392;28;20473;-76
2022/08/03 14:55:22;;;;;;;1.80;1.70;;;;;;;;;;5091139;28;20485;-75
2022/08/03 14:57:49;;;;;;;2.20;1.90;;;;;;;;;;5091273;28;20443;-76